Main page
METAR-TAF:

Airports :

Birmingham, England

Birmingham Airport

latitude: 52-27N, longitude: 001-44W, elevation: 99 m

Current weather observation

The report was made 24 minutes ago, at 18:20 UTC
Wind 11 kt from the North/Northwest
Temperature 19°C
Humidity 56%
Pressure 1014 hPa
Visibility 10 km or more
Scattered clouds at a height of 3900 ft

METAR: EGBB 301820Z 33011KT 9999 SCT039 19/10 Q1014

Time: 19:44 (18:44 UTC)

Forecast

The report was made 1 hour and 48 minutes ago, at 16:56 UTC
Forecast valid from 30 at 18 UTC to 31 at 18 UTC
Wind 7 kt from the North/Northwest
Visibility 10 km or more
Scattered clouds at a height of 4000 ft
Probability 30% :
Temporary
from 31 at 14 UTC to 31 at 18 UTC
Visibility: 7000 m
rain showers

TAF: EGBB 301656Z 3018/3118 34007KT 9999 SCT040 PROB30 TEMPO 3114/3118 7000 SHRA

METAR-TAF

Weather observations and forecasts of more than 4000 airports (METAR and TAF reports).

The available stations are represented by yellow and red dots on the map.

Hover mouse over dot to see the name of the station.

Then click to see weather observations and forecasts.

To change the map : click on the green buttons with a black cross to zoom in, on the green button with a dash to zoom out, or on the green arrows for adjacent maps.


METAR-TAF: